Government Camp, Oregon
Current Conditions -  °F | °C
As of 11:59 PM on Saturday 22 Nov 2014 (Local Time) from K4S2 Reporting Station
Scattered Clouds Scattered Clouds  
Wind Chill: 40°   Ceiling: Unl
Heat Index: 45°   Visibility: 10mi
Dew Point: 41°   Wind: 8mph
Humidity: 87%   Direction: 290°WNW
Pressure: 30.2"   Gusts: NA
Location:  45.3°N, 121.75°W
Report Text: K4S2 230759Z AUTO 29007KT 10SM SCT039 SCT046 07/05 A3020 RMK AO2 SLP244 T00700050
Loading
Personal Weather Stations






























Interactive Weather Map New forecast layout! Learn more

10-Day Weather Forecast

Advertisements
Track Severe Weather on mobile